sensor_id;sensor_type;location;lat;lon;timestamp;pressure;altitude;pressure_sealevel;temperature;humidity
11487;BME280;10510;47.942;9.442;2023-12-20T00:01:10;94746.88;;;2.50;100.00
11487;BME280;10510;47.942;9.442;2023-12-20T00:03:10;94737.50;;;2.49;100.00
11487;BME280;10510;47.942;9.442;2023-12-20T00:05:10;94744.56;;;2.47;100.00
11487;BME280;10510;47.942;9.442;2023-12-20T00:07:11;94736.94;;;2.46;100.00
11487;BME280;10510;47.942;9.442;2023-12-20T00:09:11;94736.84;;;2.47;100.00
11487;BME280;10510;47.942;9.442;2023-12-20T00:11:11;94741.84;;;2.49;100.00
11487;BME280;10510;47.942;9.442;2023-12-20T00:13:11;94739.25;;;2.49;100.00
11487;BME280;10510;47.942;9.442;2023-12-20T00:15:12;94724.59;;;2.49;100.00
11487;BME280;10510;47.942;9.442;2023-12-20T00:17:12;94700.44;;;2.50;100.00
11487;BME280;10510;47.942;9.442;2023-12-20T00:19:12;94672.06;;;2.50;100.00
11487;BME280;10510;47.942;9.442;2023-12-20T00:21:13;94675.44;;;2.51;100.00
11487;BME280;10510;47.942;9.442;2023-12-20T00:23:13;94676.97;;;2.54;100.00
11487;BME280;10510;47.942;9.442;2023-12-20T00:25:13;94675.88;;;2.56;100.00
11487;BME280;10510;47.942;9.442;2023-12-20T00:27:14;94683.34;;;2.59;100.00
11487;BME280;10510;47.942;9.442;2023-12-20T00:29:14;94687.56;;;2.60;100.00
11487;BME280;10510;47.942;9.442;2023-12-20T00:31:14;94679.69;;;2.62;100.00
11487;BME280;10510;47.942;9.442;2023-12-20T00:33:14;94686.47;;;2.63;100.00
11487;BME280;10510;47.942;9.442;2023-12-20T00:35:18;94682.81;;;2.65;100.00
11487;BME280;10510;47.942;9.442;2023-12-20T00:37:18;94679.28;;;2.66;100.00
11487;BME280;10510;47.942;9.442;2023-12-20T00:39:19;94668.94;;;2.66;100.00
11487;BME280;10510;47.942;9.442;2023-12-20T00:41:19;94663.78;;;2.66;100.00
11487;BME280;10510;47.942;9.442;2023-12-20T00:43:20;94663.66;;;2.68;100.00
11487;BME280;10510;47.942;9.442;2023-12-20T00:45:20;94657.66;;;2.67;100.00
11487;BME280;10510;47.942;9.442;2023-12-20T00:47:20;94657.81;;;2.66;100.00
11487;BME280;10510;47.942;9.442;2023-12-20T00:49:20;94647.50;;;2.66;100.00
11487;BME280;10510;47.942;9.442;2023-12-20T00:51:21;94641.38;;;2.67;100.00
11487;BME280;10510;47.942;9.442;2023-12-20T00:53:22;94633.50;;;2.68;100.00
11487;BME280;10510;47.942;9.442;2023-12-20T00:55:22;94624.00;;;2.69;100.00
11487;BME280;10510;47.942;9.442;2023-12-20T00:57:23;94611.22;;;2.67;100.00
11487;BME280;10510;47.942;9.442;2023-12-20T00:59:23;94619.78;;;2.68;100.00
11487;BME280;10510;47.942;9.442;2023-12-20T01:01:23;94614.47;;;2.69;100.00
11487;BME280;10510;47.942;9.442;2023-12-20T01:03:24;94613.53;;;2.70;100.00
11487;BME280;10510;47.942;9.442;2023-12-20T01:05:24;94610.94;;;2.70;100.00
11487;BME280;10510;47.942;9.442;2023-12-20T01:07:24;94618.69;;;2.70;100.00
11487;BME280;10510;47.942;9.442;2023-12-20T01:09:24;94618.69;;;2.70;100.00
11487;BME280;10510;47.942;9.442;2023-12-20T01:11:26;94628.06;;;2.71;100.00
11487;BME280;10510;47.942;9.442;2023-12-20T01:13:26;94626.16;;;2.73;100.00
11487;BME280;10510;47.942;9.442;2023-12-20T01:15:27;94618.16;;;2.77;100.00
11487;BME280;10510;47.942;9.442;2023-12-20T01:17:27;94628.22;;;2.80;100.00
11487;BME280;10510;47.942;9.442;2023-12-20T01:19:27;94626.97;;;2.84;100.00
11487;BME280;10510;47.942;9.442;2023-12-20T01:21:28;94630.25;;;2.86;100.00
11487;BME280;10510;47.942;9.442;2023-12-20T01:23:28;94623.16;;;2.88;100.00
11487;BME280;10510;47.942;9.442;2023-12-20T01:25:29;94617.88;;;2.89;100.00
11487;BME280;10510;47.942;9.442;2023-12-20T01:27:29;94626.31;;;2.91;100.00
11487;BME280;10510;47.942;9.442;2023-12-20T01:29:31;94630.34;;;2.94;100.00
11487;BME280;10510;47.942;9.442;2023-12-20T01:31:31;94621.69;;;2.95;100.00
11487;BME280;10510;47.942;9.442;2023-12-20T01:33:31;94621.41;;;2.98;100.00
11487;BME280;10510;47.942;9.442;2023-12-20T01:35:31;94624.00;;;2.98;100.00
11487;BME280;10510;47.942;9.442;2023-12-20T01:37:32;94610.00;;;3.01;100.00
11487;BME280;10510;47.942;9.442;2023-12-20T01:39:32;94610.66;;;3.03;100.00
11487;BME280;10510;47.942;9.442;2023-12-20T01:41:32;94610.53;;;3.04;100.00
11487;BME280;10510;47.942;9.442;2023-12-20T01:43:32;94605.22;;;3.06;100.00
11487;BME280;10510;47.942;9.442;2023-12-20T01:45:33;94606.69;;;3.08;100.00
11487;BME280;10510;47.942;9.442;2023-12-20T01:47:33;94607.50;;;3.09;100.00
11487;BME280;10510;47.942;9.442;2023-12-20T01:49:33;94597.88;;;3.11;100.00
11487;BME280;10510;47.942;9.442;2023-12-20T01:51:34;94608.88;;;3.13;100.00
11487;BME280;10510;47.942;9.442;2023-12-20T01:53:36;94604.53;;;3.13;100.00
11487;BME280;10510;47.942;9.442;2023-12-20T01:55:38;94616.47;;;3.14;100.00
11487;BME280;10510;47.942;9.442;2023-12-20T01:57:43;94618.13;;;3.15;100.00
11487;BME280;10510;47.942;9.442;2023-12-20T01:59:43;94609.56;;;3.15;100.00
11487;BME280;10510;47.942;9.442;2023-12-20T02:01:44;94606.16;;;3.14;100.00
11487;BME280;10510;47.942;9.442;2023-12-20T02:03:44;94612.97;;;3.15;100.00
11487;BME280;10510;47.942;9.442;2023-12-20T02:05:45;94613.63;;;3.17;100.00
11487;BME280;10510;47.942;9.442;2023-12-20T02:07:46;94615.13;;;3.20;100.00
11487;BME280;10510;47.942;9.442;2023-12-20T02:09:47;94614.72;;;3.25;100.00
11487;BME280;10510;47.942;9.442;2023-12-20T02:11:47;94605.88;;;3.27;100.00
11487;BME280;10510;47.942;9.442;2023-12-20T02:13:47;94609.94;;;3.30;100.00
11487;BME280;10510;47.942;9.442;2023-12-20T02:15:48;94621.63;;;3.34;100.00
11487;BME280;10510;47.942;9.442;2023-12-20T02:17:48;94605.84;;;3.37;100.00
11487;BME280;10510;47.942;9.442;2023-12-20T02:19:49;94614.81;;;3.42;100.00
11487;BME280;10510;47.942;9.442;2023-12-20T02:21:49;94605.00;;;3.46;100.00
11487;BME280;10510;47.942;9.442;2023-12-20T02:23:50;94603.63;;;3.52;100.00
11487;BME280;10510;47.942;9.442;2023-12-20T02:25:50;94598.03;;;3.56;100.00
11487;BME280;10510;47.942;9.442;2023-12-20T02:27:51;94598.56;;;3.60;100.00
11487;BME280;10510;47.942;9.442;2023-12-20T02:29:52;94601.00;;;3.61;100.00
11487;BME280;10510;47.942;9.442;2023-12-20T02:31:52;94599.25;;;3.62;100.00
11487;BME280;10510;47.942;9.442;2023-12-20T02:33:52;94598.13;;;3.64;100.00
11487;BME280;10510;47.942;9.442;2023-12-20T02:35:53;94596.91;;;3.69;100.00
11487;BME280;10510;47.942;9.442;2023-12-20T02:37:53;94595.94;;;3.70;100.00
11487;BME280;10510;47.942;9.442;2023-12-20T02:39:53;94600.16;;;3.71;100.00
11487;BME280;10510;47.942;9.442;2023-12-20T02:41:53;94603.41;;;3.73;100.00
11487;BME280;10510;47.942;9.442;2023-12-20T02:43:54;94603.28;;;3.74;100.00
11487;BME280;10510;47.942;9.442;2023-12-20T02:45:54;94585.84;;;3.76;100.00
11487;BME280;10510;47.942;9.442;2023-12-20T02:47:54;94598.63;;;3.78;100.00
11487;BME280;10510;47.942;9.442;2023-12-20T02:49:56;94591.69;;;3.78;100.00
11487;BME280;10510;47.942;9.442;2023-12-20T02:51:56;94581.22;;;3.80;100.00
11487;BME280;10510;47.942;9.442;2023-12-20T02:53:56;94586.38;;;3.80;100.00
11487;BME280;10510;47.942;9.442;2023-12-20T02:55:57;94581.22;;;3.80;100.00
11487;BME280;10510;47.942;9.442;2023-12-20T02:57:57;94587.72;;;3.84;100.00
11487;BME280;10510;47.942;9.442;2023-12-20T02:59:57;94594.22;;;3.88;100.00
11487;BME280;10510;47.942;9.442;2023-12-20T03:01:58;94591.50;;;3.90;100.00
11487;BME280;10510;47.942;9.442;2023-12-20T03:03:58;94597.47;;;3.90;100.00
11487;BME280;10510;47.942;9.442;2023-12-20T03:06:00;94599.94;;;3.92;100.00
11487;BME280;10510;47.942;9.442;2023-12-20T03:08:00;94607.69;;;3.92;100.00
11487;BME280;10510;47.942;9.442;2023-12-20T03:10:00;94597.34;;;3.92;100.00
11487;BME280;10510;47.942;9.442;2023-12-20T03:12:00;94607.53;;;3.93;100.00
11487;BME280;10510;47.942;9.442;2023-12-20T03:14:01;94601.69;;;3.91;100.00
11487;BME280;10510;47.942;9.442;2023-12-20T03:16:01;94606.06;;;3.91;100.00
11487;BME280;10510;47.942;9.442;2023-12-20T03:18:07;94603.63;;;3.89;100.00
11487;BME280;10510;47.942;9.442;2023-12-20T03:20:08;94591.50;;;3.90;100.00
11487;BME280;10510;47.942;9.442;2023-12-20T03:22:08;94591.63;;;3.88;100.00
11487;BME280;10510;47.942;9.442;2023-12-20T03:24:08;94585.81;;;3.86;100.00
11487;BME280;10510;47.942;9.442;2023-12-20T03:26:09;94581.75;;;3.83;100.00
11487;BME280;10510;47.942;9.442;2023-12-20T03:28:09;94588.00;;;3.81;100.00
11487;BME280;10510;47.942;9.442;2023-12-20T03:30:10;94588.28;;;3.78;100.00
11487;BME280;10510;47.942;9.442;2023-12-20T03:32:10;94582.44;;;3.76;100.00
11487;BME280;10510;47.942;9.442;2023-12-20T03:34:11;94582.72;;;3.73;100.00
11487;BME280;10510;47.942;9.442;2023-12-20T03:36:11;94576.22;;;3.69;100.00
11487;BME280;10510;47.942;9.442;2023-12-20T03:38:11;94590.53;;;3.63;100.00
11487;BME280;10510;47.942;9.442;2023-12-20T03:40:12;94592.44;;;3.61;100.00
11487;BME280;10510;47.942;9.442;2023-12-20T03:42:12;94593.81;;;3.55;100.00
11487;BME280;10510;47.942;9.442;2023-12-20T03:44:13;94604.44;;;3.52;100.00
11487;BME280;10510;47.942;9.442;2023-12-20T03:46:13;94606.50;;;3.49;100.00
11487;BME280;10510;47.942;9.442;2023-12-20T03:48:13;94610.03;;;3.48;100.00
11487;BME280;10510;47.942;9.442;2023-12-20T03:50:14;94607.84;;;3.43;100.00
11487;BME280;10510;47.942;9.442;2023-12-20T03:52:14;94612.50;;;3.39;100.00
11487;BME280;10510;47.942;9.442;2023-12-20T03:54:14;94610.19;;;3.36;100.00
11487;BME280;10510;47.942;9.442;2023-12-20T03:56:15;94619.03;;;3.34;100.00
11487;BME280;10510;47.942;9.442;2023-12-20T03:58:15;94613.19;;;3.32;100.00
11487;BME280;10510;47.942;9.442;2023-12-20T04:00:15;94619.59;;;3.28;100.00
11487;BME280;10510;47.942;9.442;2023-12-20T04:02:16;94611.44;;;3.23;100.00
11487;BME280;10510;47.942;9.442;2023-12-20T04:04:18;94621.25;;;3.19;100.00
11487;BME280;10510;47.942;9.442;2023-12-20T04:06:19;94621.66;;;3.14;100.00
11487;BME280;10510;47.942;9.442;2023-12-20T04:08:19;94624.66;;;3.10;100.00
11487;BME280;10510;47.942;9.442;2023-12-20T04:10:20;94614.72;;;3.05;100.00
11487;BME280;10510;47.942;9.442;2023-12-20T04:12:20;94617.75;;;3.01;100.00
11487;BME280;10510;47.942;9.442;2023-12-20T04:14:20;94618.13;;;2.96;100.00
11487;BME280;10510;47.942;9.442;2023-12-20T04:16:20;94628.63;;;2.94;100.00
11487;BME280;10510;47.942;9.442;2023-12-20T04:18:21;94630.78;;;2.89;100.00
11487;BME280;10510;47.942;9.442;2023-12-20T04:20:21;94629.56;;;2.84;100.00
11487;BME280;10510;47.942;9.442;2023-12-20T04:22:21;94633.38;;;2.80;100.00
11487;BME280;10510;47.942;9.442;2023-12-20T04:24:22;94638.81;;;2.77;100.00
11487;BME280;10510;47.942;9.442;2023-12-20T04:26:22;94642.59;;;2.72;100.00
11487;BME280;10510;47.942;9.442;2023-12-20T04:28:23;94643.69;;;2.70;100.00
11487;BME280;10510;47.942;9.442;2023-12-20T04:30:23;94649.91;;;2.67;100.00
11487;BME280;10510;47.942;9.442;2023-12-20T04:32:24;94648.56;;;2.63;100.00
11487;BME280;10510;47.942;9.442;2023-12-20T04:34:24;94655.63;;;2.61;100.00
11487;BME280;10510;47.942;9.442;2023-12-20T04:36:24;94651.53;;;2.59;100.00
11487;BME280;10510;47.942;9.442;2023-12-20T04:38:26;94651.81;;;2.56;100.00
11487;BME280;10510;47.942;9.442;2023-12-20T04:40:27;94649.50;;;2.53;100.00
11487;BME280;10510;47.942;9.442;2023-12-20T04:42:27;94654.81;;;2.51;100.00
11487;BME280;10510;47.942;9.442;2023-12-20T04:44:27;94655.06;;;2.48;100.00
11487;BME280;10510;47.942;9.442;2023-12-20T04:46:28;94668.09;;;2.46;100.00
11487;BME280;10510;47.942;9.442;2023-12-20T04:48:28;94666.59;;;2.44;100.00
11487;BME280;10510;47.942;9.442;2023-12-20T04:50:28;94668.38;;;2.43;100.00
11487;BME280;10510;47.942;9.442;2023-12-20T04:52:28;94670.28;;;2.41;100.00
11487;BME280;10510;47.942;9.442;2023-12-20T04:54:29;94667.00;;;2.39;100.00
11487;BME280;10510;47.942;9.442;2023-12-20T04:56:29;94666.19;;;2.39;100.00
11487;BME280;10510;47.942;9.442;2023-12-20T04:58:29;94663.75;;;2.37;100.00
11487;BME280;10510;47.942;9.442;2023-12-20T05:00:30;94675.72;;;2.38;100.00
11487;BME280;10510;47.942;9.442;2023-12-20T05:02:30;94667.28;;;2.36;100.00
11487;BME280;10510;47.942;9.442;2023-12-20T05:04:30;94672.56;;;2.35;100.00
11487;BME280;10510;47.942;9.442;2023-12-20T05:06:30;94675.13;;;2.35;100.00
11487;BME280;10510;47.942;9.442;2023-12-20T05:08:31;94673.38;;;2.35;100.00
11487;BME280;10510;47.942;9.442;2023-12-20T05:10:31;94678.53;;;2.35;100.00
11487;BME280;10510;47.942;9.442;2023-12-20T05:12:31;94679.38;;;2.36;100.00
11487;BME280;10510;47.942;9.442;2023-12-20T05:14:31;94683.44;;;2.38;100.00
11487;BME280;10510;47.942;9.442;2023-12-20T05:16:32;94675.56;;;2.40;100.00
11487;BME280;10510;47.942;9.442;2023-12-20T05:18:32;94669.44;;;2.41;100.00
11487;BME280;10510;47.942;9.442;2023-12-20T05:20:32;94678.84;;;2.42;100.00
11487;BME280;10510;47.942;9.442;2023-12-20T05:22:32;94677.88;;;2.43;100.00
11487;BME280;10510;47.942;9.442;2023-12-20T05:24:33;94676.91;;;2.44;100.00
11487;BME280;10510;47.942;9.442;2023-12-20T05:26:33;94687.13;;;2.45;100.00
11487;BME280;10510;47.942;9.442;2023-12-20T05:28:33;94691.19;;;2.48;100.00
11487;BME280;10510;47.942;9.442;2023-12-20T05:30:34;94688.63;;;2.48;100.00
11487;BME280;10510;47.942;9.442;2023-12-20T05:32:34;94694.47;;;2.50;100.00
11487;BME280;10510;47.942;9.442;2023-12-20T05:34:34;94702.88;;;2.52;100.00
11487;BME280;10510;47.942;9.442;2023-12-20T05:36:35;94701.09;;;2.53;100.00
11487;BME280;10510;47.942;9.442;2023-12-20T05:38:36;94710.34;;;2.55;100.00
11487;BME280;10510;47.942;9.442;2023-12-20T05:40:37;94713.75;;;2.56;100.00
11487;BME280;10510;47.942;9.442;2023-12-20T05:42:37;94724.06;;;2.56;100.00
11487;BME280;10510;47.942;9.442;2023-12-20T05:44:38;94726.63;;;2.56;100.00
11487;BME280;10510;47.942;9.442;2023-12-20T05:46:38;94731.69;;;2.57;100.00
11487;BME280;10510;47.942;9.442;2023-12-20T05:48:39;94711.84;;;2.58;100.00
11487;BME280;10510;47.942;9.442;2023-12-20T05:50:40;94714.31;;;2.59;100.00
11487;BME280;10510;47.942;9.442;2023-12-20T05:52:40;94717.56;;;2.61;100.00
11487;BME280;10510;47.942;9.442;2023-12-20T05:54:41;94724.50;;;2.61;100.00
11487;BME280;10510;47.942;9.442;2023-12-20T05:56:41;94722.88;;;2.60;100.00
11487;BME280;10510;47.942;9.442;2023-12-20T05:58:41;94727.06;;;2.61;100.00
11487;BME280;10510;47.942;9.442;2023-12-20T06:00:42;94732.22;;;2.61;100.00
11487;BME280;10510;47.942;9.442;2023-12-20T06:02:43;94737.38;;;2.61;100.00
11487;BME280;10510;47.942;9.442;2023-12-20T06:04:43;94733.03;;;2.61;100.00
11487;BME280;10510;47.942;9.442;2023-12-20T06:06:44;94724.38;;;2.62;100.00
11487;BME280;10510;47.942;9.442;2023-12-20T06:08:44;94726.94;;;2.62;100.00
11487;BME280;10510;47.942;9.442;2023-12-20T06:10:44;94721.66;;;2.64;100.00
11487;BME280;10510;47.942;9.442;2023-12-20T06:12:45;94713.91;;;2.64;100.00
11487;BME280;10510;47.942;9.442;2023-12-20T06:14:47;94722.44;;;2.64;100.00
11487;BME280;10510;47.942;9.442;2023-12-20T06:16:47;94730.06;;;2.66;100.00
11487;BME280;10510;47.942;9.442;2023-12-20T06:18:47;94732.50;;;2.67;100.00
11487;BME280;10510;47.942;9.442;2023-12-20T06:20:48;94736.88;;;2.67;100.00
11487;BME280;10510;47.942;9.442;2023-12-20T06:22:48;94745.28;;;2.69;100.00
11487;BME280;10510;47.942;9.442;2023-12-20T06:24:48;94744.34;;;2.70;100.00
11487;BME280;10510;47.942;9.442;2023-12-20T06:26:48;94747.59;;;2.72;100.00
11487;BME280;10510;47.942;9.442;2023-12-20T06:28:49;94744.22;;;2.71;100.00
11487;BME280;10510;47.942;9.442;2023-12-20T06:30:49;94737.41;;;2.70;100.00
11487;BME280;10510;47.942;9.442;2023-12-20T06:32:52;94745.03;;;2.72;100.00
11487;BME280;10510;47.942;9.442;2023-12-20T06:34:53;94750.03;;;2.73;100.00
11487;BME280;10510;47.942;9.442;2023-12-20T06:36:53;94744.88;;;2.73;100.00
11487;BME280;10510;47.942;9.442;2023-12-20T06:38:53;94741.22;;;2.76;100.00
11487;BME280;10510;47.942;9.442;2023-12-20T06:40:53;94743.00;;;2.76;100.00
11487;BME280;10510;47.942;9.442;2023-12-20T06:42:54;94744.66;;;2.77;100.00
11487;BME280;10510;47.942;9.442;2023-12-20T06:44:54;94754.81;;;2.78;100.00
11487;BME280;10510;47.942;9.442;2023-12-20T06:46:54;94751.44;;;2.78;100.00
11487;BME280;10510;47.942;9.442;2023-12-20T06:48:55;94754.81;;;2.78;100.00
11487;BME280;10510;47.942;9.442;2023-12-20T06:50:55;94756.44;;;2.79;100.00
11487;BME280;10510;47.942;9.442;2023-12-20T06:52:55;94754.81;;;2.78;100.00
11487;BME280;10510;47.942;9.442;2023-12-20T06:54:55;94764.19;;;2.79;100.00
11487;BME280;10510;47.942;9.442;2023-12-20T06:56:56;94769.34;;;2.79;100.00
11487;BME280;10510;47.942;9.442;2023-12-20T06:58:56;94771.00;;;2.80;100.00
11487;BME280;10510;47.942;9.442;2023-12-20T07:00:56;94774.41;;;2.81;100.00
11487;BME280;10510;47.942;9.442;2023-12-20T07:02:56;94764.88;;;2.81;100.00
11487;BME280;10510;47.942;9.442;2023-12-20T07:04:57;94772.50;;;2.83;100.00
11487;BME280;10510;47.942;9.442;2023-12-20T07:06:57;94779.41;;;2.82;100.00
11487;BME280;10510;47.942;9.442;2023-12-20T07:09:00;94776.03;;;2.82;100.00
11487;BME280;10510;47.942;9.442;2023-12-20T07:11:00;94777.66;;;2.83;100.00
11487;BME280;10510;47.942;9.442;2023-12-20T07:13:01;94782.69;;;2.84;100.00
11487;BME280;10510;47.942;9.442;2023-12-20T07:15:01;94789.63;;;2.84;100.00
11487;BME280;10510;47.942;9.442;2023-12-20T07:17:02;94777.53;;;2.84;100.00
11487;BME280;10510;47.942;9.442;2023-12-20T07:19:03;94786.88;;;2.85;100.00
11487;BME280;10510;47.942;9.442;2023-12-20T07:21:03;94781.72;;;2.85;100.00
11487;BME280;10510;47.942;9.442;2023-12-20T07:23:03;94784.19;;;2.87;100.00
11487;BME280;10510;47.942;9.442;2023-12-20T07:25:04;94784.31;;;2.85;100.00
11487;BME280;10510;47.942;9.442;2023-12-20T07:27:07;94777.41;;;2.86;100.00
11487;BME280;10510;47.942;9.442;2023-12-20T07:29:10;94785.81;;;2.88;100.00
11487;BME280;10510;47.942;9.442;2023-12-20T07:31:10;94791.81;;;2.88;100.00
11487;BME280;10510;47.942;9.442;2023-12-20T07:33:11;94796.03;;;2.89;100.00
11487;BME280;10510;47.942;9.442;2023-12-20T07:35:12;94804.56;;;2.90;100.00
11487;BME280;10510;47.942;9.442;2023-12-20T07:37:12;94811.50;;;2.89;100.00
11487;BME280;10510;47.942;9.442;2023-12-20T07:39:14;94805.53;;;2.89;100.00
11487;BME280;10510;47.942;9.442;2023-12-20T07:41:14;94802.16;;;2.88;100.00
11487;BME280;10510;47.942;9.442;2023-12-20T07:43:16;94806.34;;;2.89;100.00
11487;BME280;10510;47.942;9.442;2023-12-20T07:45:16;94808.78;;;2.91;100.00
11487;BME280;10510;47.942;9.442;2023-12-20T07:47:16;94807.84;;;2.92;100.00
11487;BME280;10510;47.942;9.442;2023-12-20T07:49:21;94812.06;;;2.93;100.00
11487;BME280;10510;47.942;9.442;2023-12-20T07:51:21;94811.94;;;2.94;100.00
11487;BME280;10510;47.942;9.442;2023-12-20T07:53:22;94810.84;;;2.97;100.00
11487;BME280;10510;47.942;9.442;2023-12-20T07:55:22;94805.66;;;2.97;100.00
11487;BME280;10510;47.942;9.442;2023-12-20T07:57:23;94807.31;;;2.98;100.00
11487;BME280;10510;47.942;9.442;2023-12-20T07:59:23;94809.75;;;3.00;100.00
11487;BME280;10510;47.942;9.442;2023-12-20T08:01:24;94813.84;;;3.02;100.00
11487;BME280;10510;47.942;9.442;2023-12-20T08:03:24;94814.53;;;3.04;100.00
11487;BME280;10510;47.942;9.442;2023-12-20T08:05:24;94813.56;;;3.05;100.00
11487;BME280;10510;47.942;9.442;2023-12-20T08:07:24;94821.06;;;3.08;100.00
11487;BME280;10510;47.942;9.442;2023-12-20T08:09:25;94824.22;;;3.12;100.00
11487;BME280;10510;47.942;9.442;2023-12-20T08:11:25;94821.47;;;3.13;100.00
11487;BME280;10510;47.942;9.442;2023-12-20T08:13:26;94826.38;;;3.16;100.00
11487;BME280;10510;47.942;9.442;2023-12-20T08:15:26;94826.09;;;3.19;100.00
11487;BME280;10510;47.942;9.442;2023-12-20T08:17:27;94831.81;;;3.23;100.00
11487;BME280;10510;47.942;9.442;2023-12-20T08:19:27;94817.00;;;3.25;100.00
11487;BME280;10510;47.942;9.442;2023-12-20T08:21:27;94824.50;;;3.28;100.00
11487;BME280;10510;47.942;9.442;2023-12-20T08:23:27;94824.09;;;3.33;100.00
11487;BME280;10510;47.942;9.442;2023-12-20T08:25:28;94818.78;;;3.34;100.00
11487;BME280;10510;47.942;9.442;2023-12-20T08:27:28;94815.28;;;3.35;100.00
11487;BME280;10510;47.942;9.442;2023-12-20T08:29:28;94811.31;;;3.41;100.00
11487;BME280;10510;47.942;9.442;2023-12-20T08:31:29;94819.88;;;3.51;100.00
11487;BME280;10510;47.942;9.442;2023-12-20T08:33:29;94824.66;;;3.66;100.00
11487;BME280;10510;47.942;9.442;2023-12-20T08:35:30;94823.69;;;3.67;100.00
11487;BME280;10510;47.942;9.442;2023-12-20T08:37:31;94830.09;;;3.62;100.00
11487;BME280;10510;47.942;9.442;2023-12-20T08:39:31;94821.53;;;3.62;100.00
11487;BME280;10510;47.942;9.442;2023-12-20T08:41:35;94824.78;;;3.64;100.00
11487;BME280;10510;47.942;9.442;2023-12-20T08:43:35;94824.78;;;3.64;100.00
11487;BME280;10510;47.942;9.442;2023-12-20T08:45:36;94815.81;;;3.68;100.00
11487;BME280;10510;47.942;9.442;2023-12-20T08:47:36;94819.34;;;3.77;100.00
11487;BME280;10510;47.942;9.442;2023-12-20T08:49:36;94815.53;;;3.81;100.00
11487;BME280;10510;47.942;9.442;2023-12-20T08:51:36;94813.34;;;3.86;100.00
11487;BME280;10510;47.942;9.442;2023-12-20T08:53:40;94822.34;;;3.92;100.00
11487;BME280;10510;47.942;9.442;2023-12-20T08:55:40;94810.63;;;3.97;100.00
11487;BME280;10510;47.942;9.442;2023-12-20T08:57:41;94826.25;;;4.05;100.00
11487;BME280;10510;47.942;9.442;2023-12-20T08:59:41;94819.56;;;4.13;100.00
11487;BME280;10510;47.942;9.442;2023-12-20T09:01:41;94829.91;;;4.13;100.00
11487;BME280;10510;47.942;9.442;2023-12-20T09:03:42;94835.91;;;4.13;100.00
11487;BME280;10510;47.942;9.442;2023-12-20T09:05:42;94840.94;;;4.15;100.00
11487;BME280;10510;47.942;9.442;2023-12-20T09:07:42;94836.19;;;4.10;100.00
11487;BME280;10510;47.942;9.442;2023-12-20T09:09:43;94839.06;;;4.07;100.00
11487;BME280;10510;47.942;9.442;2023-12-20T09:11:43;94839.16;;;4.05;100.00
11487;BME280;10510;47.942;9.442;2023-12-20T09:13:46;94839.16;;;4.05;100.00
11487;BME280;10510;47.942;9.442;2023-12-20T09:15:46;94832.50;;;4.03;100.00
11487;BME280;10510;47.942;9.442;2023-12-20T09:17:46;94835.38;;;4.09;100.00
11487;BME280;10510;47.942;9.442;2023-12-20T09:19:47;94832.78;;;4.09;100.00
11487;BME280;10510;47.942;9.442;2023-12-20T09:21:50;94829.56;;;4.35;100.00
11487;BME280;10510;47.942;9.442;2023-12-20T09:23:50;94827.78;;;4.45;100.00
11487;BME280;10510;47.942;9.442;2023-12-20T09:25:50;94823.00;;;4.50;100.00
11487;BME280;10510;47.942;9.442;2023-12-20T09:27:51;94823.25;;;4.57;100.00
11487;BME280;10510;47.942;9.442;2023-12-20T09:29:52;94835.41;;;4.47;100.00
11487;BME280;10510;47.942;9.442;2023-12-20T09:31:53;94831.72;;;4.49;100.00
11487;BME280;10510;47.942;9.442;2023-12-20T09:33:53;94828.69;;;4.64;100.00
11487;BME280;10510;47.942;9.442;2023-12-20T09:35:54;94832.47;;;4.69;100.00
11487;BME280;10510;47.942;9.442;2023-12-20T09:37:54;94840.81;;;4.91;100.00
11487;BME280;10510;47.942;9.442;2023-12-20T09:39:54;94846.38;;;4.68;100.00
11487;BME280;10510;47.942;9.442;2023-12-20T09:42:05;94840.56;;;4.57;100.00
11487;BME280;10510;47.942;9.442;2023-12-20T09:44:07;94839.75;;;4.56;100.00
11487;BME280;10510;47.942;9.442;2023-12-20T09:46:10;94837.97;;;4.57;100.00
11487;BME280;10510;47.942;9.442;2023-12-20T09:48:12;94838.09;;;4.65;100.00
11487;BME280;10510;47.942;9.442;2023-12-20T09:50:14;94838.63;;;4.68;100.00
11487;BME280;10510;47.942;9.442;2023-12-20T09:52:16;94831.59;;;4.88;100.00
11487;BME280;10510;47.942;9.442;2023-12-20T09:54:17;94825.31;;;5.36;100.00
11487;BME280;10510;47.942;9.442;2023-12-20T09:56:18;94820.34;;;5.97;100.00
11487;BME280;10510;47.942;9.442;2023-12-20T09:58:18;94832.19;;;5.81;100.00
11487;BME280;10510;47.942;9.442;2023-12-20T10:00:19;94815.81;;;6.43;100.00
11487;BME280;10510;47.942;9.442;2023-12-20T10:02:21;94810.09;;;7.83;100.00
11487;BME280;10510;47.942;9.442;2023-12-20T10:04:24;94808.94;;;8.43;100.00
11487;BME280;10510;47.942;9.442;2023-12-20T10:06:25;94804.69;;;8.50;100.00
11487;BME280;10510;47.942;9.442;2023-12-20T10:08:26;94806.25;;;7.28;100.00
11487;BME280;10510;47.942;9.442;2023-12-20T10:10:27;94798.72;;;6.66;100.00
11487;BME280;10510;47.942;9.442;2023-12-20T10:12:27;94787.34;;;6.59;100.00
11487;BME280;10510;47.942;9.442;2023-12-20T10:14:27;94800.09;;;6.18;100.00
11487;BME280;10510;47.942;9.442;2023-12-20T10:16:28;94787.44;;;5.79;100.00
11487;BME280;10510;47.942;9.442;2023-12-20T10:18:29;94789.72;;;5.82;100.00
11487;BME280;10510;47.942;9.442;2023-12-20T10:20:30;94781.66;;;5.85;100.00
11487;BME280;10510;47.942;9.442;2023-12-20T10:22:31;94788.41;;;5.96;100.00
11487;BME280;10510;47.942;9.442;2023-12-20T10:24:32;94789.09;;;8.17;100.00
11487;BME280;10510;47.942;9.442;2023-12-20T10:26:32;94785.81;;;8.95;100.00
11487;BME280;10510;47.942;9.442;2023-12-20T10:28:33;94786.69;;;11.23;100.00
11487;BME280;10510;47.942;9.442;2023-12-20T10:30:34;94780.47;;;11.24;100.00
11487;BME280;10510;47.942;9.442;2023-12-20T10:32:34;94786.69;;;11.80;100.00
11487;BME280;10510;47.942;9.442;2023-12-20T10:34:35;94781.91;;;11.63;100.00
11487;BME280;10510;47.942;9.442;2023-12-20T10:36:35;94780.03;;;11.05;100.00
11487;BME280;10510;47.942;9.442;2023-12-20T10:38:38;94793.09;;;9.85;100.00